Time;durP1;ratioP1;P1;durP2;ratioP2;P2;SDS_P1;SDS_P2;PMS_P1;PMS_P2;Temp;Humidity;BMP_temperature;BMP_pressure;BME280_temperature;BME280_humidity;BME280_pressure;Samples;Min_cycle;Max_cycle;Signal;HPM_P1;HPM_P2
2022/10/21 02:08:51;;;;;;;31.00;19.83;;;7.30;99.90;;;;;;4991775;28;20140;-68
2022/10/21 02:11:17;;;;;;;31.58;18.77;;;7.50;99.90;;;;;;4993066;28;20402;-68
2022/10/21 02:13:50;;;;;;;25.80;18.35;;;7.60;99.90;;;;;;4981659;28;20045;-62
2022/10/21 02:16:17;;;;;;;;;;;7.80;99.90;;;;;;4988556;28;20378;-60
2022/10/21 02:18:43;;;;;;;27.90;18.35;;;7.90;99.90;;;;;;4989817;28;19913;-63
2022/10/21 02:21:14;;;;;;;26.63;18.48;;;7.60;99.90;;;;;;4980394;28;20035;-66
2022/10/21 02:23:57;;;;;;;27.67;18.77;;;7.80;99.90;;;;;;4986933;28;20109;-61
2022/10/21 02:26:25;;;;;;;23.63;18.30;;;7.80;99.90;;;;;;4989250;28;20049;-61
2022/10/21 02:28:52;;;;;;;24.33;18.67;;;7.80;99.90;;;;;;4989034;28;20474;-63
2022/10/21 02:31:21;;;;;;;24.55;19.08;;;7.50;99.90;;;;;;4992607;28;20113;-67
2022/10/21 02:34:43;;;;;;;29.83;20.10;;;7.10;99.90;;;;;;4991966;28;20026;-62
2022/10/21 02:37:27;;;;;;;38.28;20.15;;;6.90;99.90;;;;;;4956402;28;20525;-64
2022/10/21 02:39:58;;;;;;;27.40;19.27;;;;;;;;;;4955975;28;20106;-65
2022/10/21 02:42:26;;;;;;;27.65;17.67;;;;;;;;;;4956307;28;20106;-62
2022/10/21 02:44:52;;;;;;;26.00;18.17;;;6.30;99.90;;;;;;4903772;29;20111;-61
2022/10/21 02:47:18;;;;;;;26.60;17.70;;;6.30;99.90;;;;;;4957041;28;20126;-60
2022/10/21 02:49:45;;;;;;;25.70;18.05;;;6.20;99.90;;;;;;4954591;28;20027;-64
2022/10/21 02:52:11;;;;;;;29.40;19.00;;;6.20;99.90;;;;;;4956701;28;20027;-61
2022/10/21 02:54:37;;;;;;;25.40;16.58;;;6.20;99.90;;;;;;4894235;28;20376;-66
2022/10/21 02:57:02;;;;;;;31.38;18.20;;;6.20;99.90;;;;;;4958699;28;20066;-60
2022/10/21 02:59:28;;;;;;;26.38;16.90;;;6.30;99.90;;;;;;4921946;28;20039;-60
2022/10/21 03:01:54;;;;;;;27.17;17.95;;;6.20;99.90;;;;;;4955754;28;20043;-60
2022/10/21 03:04:20;;;;;;;26.83;17.92;;;6.30;99.90;;;;;;4961309;28;20186;-60
2022/10/21 03:06:45;;;;;;;29.02;19.30;;;6.50;99.90;;;;;;4955158;28;20130;-66
2022/10/21 03:09:11;;;;;;;28.25;18.60;;;6.70;99.90;;;;;;4993249;28;20393;-57
2022/10/21 03:11:37;;;;;;;27.80;19.63;;;6.90;99.90;;;;;;5005383;28;20018;-60
2022/10/21 03:14:02;;;;;;;32.30;23.05;;;6.90;99.90;;;;;;5004700;28;20036;-59
2022/10/21 03:16:28;;;;;;;31.45;21.10;;;6.80;99.90;;;;;;5006961;28;20026;-60
2022/10/21 03:18:54;;;;;;;33.70;22.05;;;6.90;99.90;;;;;;4965374;28;20125;-58
2022/10/21 03:21:19;;;;;;;33.25;22.80;;;6.90;99.90;;;;;;4997640;28;20031;-63
2022/10/21 03:23:45;;;;;;;42.20;25.08;;;7.00;99.90;;;;;;5009132;28;20069;-63
2022/10/21 03:26:11;;;;;;;30.50;21.95;;;7.20;99.90;;;;;;5011125;28;20046;-62
2022/10/21 03:28:37;;;;;;;34.45;22.48;;;7.30;99.90;;;;;;5003425;28;20072;-61
2022/10/21 03:31:02;;;;;;;32.63;20.50;;;7.10;99.90;;;;;;4959433;28;20050;-61
2022/10/21 03:33:28;;;;;;;33.97;21.05;;;7.20;99.90;;;;;;4978872;28;20030;-59
2022/10/21 03:35:54;;;;;;;29.70;21.58;;;7.30;99.90;;;;;;5007146;28;20092;-64
2022/10/21 03:38:20;;;;;;;34.30;21.52;;;7.20;99.90;;;;;;5000011;28;20231;-62
2022/10/21 03:40:45;;;;;;;35.03;22.52;;;7.30;99.90;;;;;;4966260;28;20038;-58
2022/10/21 03:43:11;;;;;;;31.65;20.70;;;7.40;99.90;;;;;;4964343;28;20042;-62
2022/10/21 03:45:37;;;;;;;36.63;22.65;;;7.60;99.90;;;;;;5006131;28;20133;-62
2022/10/21 03:48:02;;;;;;;32.33;21.38;;;7.70;99.90;;;;;;5008164;28;20026;-63
2022/10/21 03:50:28;;;;;;;29.85;20.25;;;7.70;99.90;;;;;;5003346;28;20034;-57
2022/10/21 03:52:54;;;;;;;31.10;22.02;;;7.90;99.90;;;;;;5003888;28;20068;-61
2022/10/21 03:55:22;;;;;;;34.70;21.20;;;8.00;99.90;;;;;;5003069;28;20129;-61
2022/10/21 03:57:48;;;;;;;37.25;24.20;;;8.10;99.90;;;;;;5003508;28;20040;-63
2022/10/21 04:00:15;;;;;;;35.90;24.38;;;8.10;99.90;;;;;;5006728;28;20353;-59
2022/10/21 04:02:41;;;;;;;42.10;24.67;;;8.10;99.90;;;;;;5002017;28;20435;-57
2022/10/21 04:05:09;;;;;;;41.80;24.33;;;8.20;99.90;;;;;;5008744;28;20052;-63
2022/10/21 04:07:35;;;;;;;32.28;20.40;;;8.20;99.90;;;;;;4998900;28;20037;-65
2022/10/21 04:10:00;;;;;;;43.38;28.75;;;8.30;99.90;;;;;;5005770;28;20049;-61
2022/10/21 04:12:26;;;;;;;33.95;21.55;;;8.30;99.90;;;;;;4969965;28;20359;-62
2022/10/21 04:14:52;;;;;;;33.78;22.10;;;8.40;99.90;;;;;;4986854;28;20029;-60
2022/10/21 04:17:18;;;;;;;33.42;23.98;;;8.50;99.90;;;;;;4949425;28;20117;-63
2022/10/21 04:19:43;;;;;;;34.30;22.85;;;8.50;99.90;;;;;;5003822;28;20026;-63
2022/10/21 04:22:09;;;;;;;29.30;20.52;;;7.90;99.90;;;;;;4998831;28;20026;-63
2022/10/21 04:24:35;;;;;;;31.42;20.95;;;7.80;99.90;;;;;;5002881;28;20057;-62
2022/10/21 04:27:01;;;;;;;31.58;21.13;;;7.60;99.90;;;;;;5002327;28;20038;-59
2022/10/21 04:29:26;;;;;;;29.92;22.40;;;7.30;99.90;;;;;;5000782;28;20034;-61
2022/10/21 04:31:52;;;;;;;30.58;19.80;;;7.20;99.90;;;;;;5003221;28;20030;-66
2022/10/21 04:34:18;;;;;;;31.27;20.05;;;6.70;99.90;;;;;;4960398;28;20105;-63
2022/10/21 04:36:44;;;;;;;27.88;20.25;;;6.40;99.90;;;;;;4977050;28;20034;-58
2022/10/21 04:39:09;;;;;;;26.17;19.73;;;6.30;99.90;;;;;;5005372;28;20018;-58
2022/10/21 04:41:35;;;;;;;30.73;21.00;;;6.20;99.90;;;;;;4938489;28;20066;-58
2022/10/21 04:44:02;;;;;;;30.77;21.08;;;6.10;99.90;;;;;;5000243;28;20038;-56
2022/10/21 04:46:28;;;;;;;26.75;19.92;;;5.80;99.90;;;;;;5002907;28;20033;-61
2022/10/21 04:48:54;;;;;;;29.98;18.92;;;5.60;99.90;;;;;;4973883;28;20052;-67
2022/10/21 04:51:19;;;;;;;27.15;19.40;;;5.50;99.90;;;;;;4968761;28;20078;-58
2022/10/21 04:53:45;;;;;;;27.08;16.40;;;5.50;99.90;;;;;;4991095;28;20034;-58
2022/10/21 04:56:11;;;;;;;28.40;19.23;;;5.30;99.90;;;;;;4995880;28;20085;-57
2022/10/21 04:58:37;;;;;;;25.90;17.75;;;5.30;99.90;;;;;;4977206;28;20100;-60
2022/10/21 05:01:03;;;;;;;24.70;17.50;;;5.60;99.90;;;;;;4994575;28;20110;-57
2022/10/21 05:03:29;;;;;;;28.63;19.35;;;5.70;99.90;;;;;;4994876;28;20080;-59
2022/10/21 05:05:55;;;;;;;31.77;19.15;;;5.70;99.90;;;;;;4994698;28;20038;-63
2022/10/21 05:08:21;;;;;;;28.73;19.27;;;5.80;99.90;;;;;;4991422;28;20103;-59
2022/10/21 05:10:47;;;;;;;25.58;18.48;;;6.00;99.90;;;;;;4985509;28;20057;-61
2022/10/21 05:13:13;;;;;;;28.92;18.40;;;6.00;99.90;;;;;;4991256;28;20033;-56
2022/10/21 05:15:39;;;;;;;29.35;20.27;;;5.90;99.90;;;;;;4991961;28;20030;-49
2022/10/21 05:18:04;;;;;;;31.23;20.15;;;5.80;99.90;;;;;;4989456;28;20049;-55
2022/10/21 05:20:30;;;;;;;30.67;19.50;;;6.00;99.90;;;;;;4991348;28;20154;-55
2022/10/21 05:22:56;;;;;;;29.48;21.00;;;5.90;99.90;;;;;;4994189;28;20042;-55
2022/10/21 05:25:22;;;;;;;33.38;20.48;;;6.00;99.90;;;;;;4945751;28;20039;-55
2022/10/21 05:27:47;;;;;;;30.70;21.60;;;6.30;99.90;;;;;;4988581;28;20023;-58
2022/10/21 05:30:13;;;;;;;39.53;24.55;;;6.50;99.90;;;;;;4981692;28;20053;-52
2022/10/21 05:32:40;;;;;;;46.38;25.88;;;6.70;99.90;;;;;;4985612;28;20094;-59
2022/10/21 05:35:06;;;;;;;49.60;27.40;;;6.70;99.90;;;;;;4923320;29;20391;-59
2022/10/21 05:37:32;;;;;;;53.60;31.05;;;6.70;99.90;;;;;;4914417;29;20078;-59
2022/10/21 05:39:58;;;;;;;47.92;27.55;;;7.00;99.90;;;;;;4871715;29;20056;-58
2022/10/21 05:42:24;;;;;;;42.40;26.90;;;8.80;99.90;;;;;;4916007;29;20060;-58
2022/10/21 05:44:50;;;;;;;45.00;24.58;;;10.20;99.90;;;;;;4917032;29;20196;-59
2022/10/21 05:47:15;;;;;;;33.65;22.48;;;11.10;99.90;;;;;;4921498;29;20460;-58
2022/10/21 05:49:41;;;;;;;36.65;20.95;;;12.80;99.90;;;;;;4920105;29;20123;-59
2022/10/21 05:52:07;;;;;;;32.22;20.55;;;;;;;;;;4918283;29;20226;-57
2022/10/21 05:54:33;;;;;;;30.50;20.45;;;16.30;99.90;;;;;;4916382;29;20047;-59
2022/10/21 05:56:58;;;;;;;27.17;18.13;;;17.50;99.90;;;;;;4916280;29;20047;-59
2022/10/21 05:59:25;;;;;;;28.52;17.98;;;;;;;;;;4917929;29;20032;-57
2022/10/21 06:01:51;;;;;;;23.88;16.98;;;17.70;98.50;;;;;;4915775;29;20047;-58
2022/10/21 06:04:17;;;;;;;34.17;25.90;;;18.90;98.10;;;;;;4855597;29;20401;-56
2022/10/21 06:06:43;;;;;;;31.52;22.95;;;20.00;98.10;;;;;;4969912;28;20098;-58
2022/10/21 06:09:08;;;;;;;23.60;17.02;;;20.50;96.90;;;;;;4983639;28;20082;-58
2022/10/21 06:11:34;;;;;;;25.13;15.90;;;;;;;;;;4990420;28;20481;-58
2022/10/21 06:14:00;;;;;;;20.88;15.68;;;21.80;94.70;;;;;;4930014;28;20478;-59
2022/10/21 06:16:26;;;;;;;20.98;15.50;;;;;;;;;;4989410;28;20030;-58
2022/10/21 06:18:52;;;;;;;23.85;16.60;;;23.80;99.90;;;;;;4948474;28;20038;-56
2022/10/21 06:21:18;;;;;;;24.13;16.45;;;24.30;90.40;;;;;;4985987;28;20130;-59
2022/10/21 06:23:43;;;;;;;20.85;15.07;;;25.00;87.90;;;;;;4926388;28;20042;-56
2022/10/21 06:26:14;;;;;;;23.92;15.55;;;;;;;;;;4987557;28;20113;-57
2022/10/21 06:28:42;;;;;;;22.70;17.08;;;25.70;84.80;;;;;;4988429;28;20054;-56
2022/10/21 06:31:32;;;;;;;24.70;18.70;;;;;;;;;;4995495;28;20490;-58
2022/10/21 06:33:57;;;;;;;24.13;17.17;;;26.40;80.30;;;;;;5008634;28;20093;-54
2022/10/21 06:36:23;;;;;;;22.45;16.98;;;26.20;80.10;;;;;;4993900;28;20034;-58
2022/10/21 06:38:49;;;;;;;21.08;16.90;;;26.40;79.50;;;;;;4991635;28;20038;-55
2022/10/21 06:41:16;;;;;;;21.75;16.40;;;26.10;93.10;;;;;;5000009;28;20065;-58
2022/10/21 06:43:42;;;;;;;21.02;16.17;;;26.20;77.90;;;;;;4962269;28;20065;-55
2022/10/21 06:46:10;;;;;;;20.83;15.00;;;;;;;;;;4996856;28;20062;-54
2022/10/21 06:48:36;;;;;;;18.92;14.65;;;27.00;78.70;;;;;;4997657;28;20119;-59
2022/10/21 06:51:05;;;;;;;18.48;14.52;;;25.70;78.00;;;;;;4992595;28;20030;-58
2022/10/21 06:53:31;;;;;;;18.27;15.25;;;26.30;79.60;;;;;;4990100;28;20517;-58
2022/10/21 06:56:04;;;;;;;20.63;14.90;;;26.80;79.30;;;;;;4993892;28;20093;-55
2022/10/21 06:58:31;;;;;;;17.73;15.48;;;26.90;77.40;;;;;;4998954;28;20033;-56
2022/10/21 07:00:57;;;;;;;21.13;15.18;;;25.60;76.80;;;;;;4978407;28;20034;-58
2022/10/21 07:03:23;;;;;;;19.05;16.95;;;26.00;77.70;;;;;;4999834;28;20085;-57
2022/10/21 07:05:49;;;;;;;22.55;17.33;;;25.20;80.40;;;;;;4997243;28;20038;-56
2022/10/21 07:08:15;;;;;;;24.65;18.13;;;24.40;81.00;;;;;;4993531;28;20084;-55
2022/10/21 07:10:43;;;;;;;21.20;15.95;;;24.40;81.00;;;;;;4995778;28;20128;-54
2022/10/21 07:13:10;;;;;;;21.52;15.07;;;25.40;79.80;;;;;;4997482;28;20038;-55
2022/10/21 07:15:36;;;;;;;18.27;14.68;;;25.90;89.60;;;;;;4997720;28;20026;-58
2022/10/21 07:18:02;;;;;;;21.05;15.20;;;25.60;78.90;;;;;;4997688;28;20069;-58
2022/10/21 07:20:27;;;;;;;21.08;15.25;;;26.00;79.10;;;;;;4959376;28;20039;-54
2022/10/21 07:22:53;;;;;;;18.20;14.82;;;28.10;78.60;;;;;;4992422;28;20037;-57
2022/10/21 07:25:19;;;;;;;19.52;15.00;;;28.00;78.30;;;;;;4941319;28;20057;-57
2022/10/21 07:27:47;;;;;;;17.67;14.25;;;27.30;77.00;;;;;;4936081;28;20034;-54
2022/10/21 07:30:12;;;;;;;16.83;14.57;;;27.50;76.90;;;;;;4945000;28;20081;-56
2022/10/21 07:32:38;;;;;;;17.77;14.57;;;27.20;77.20;;;;;;4994430;28;20030;-56
2022/10/21 07:35:04;;;;;;;19.33;13.90;;;27.00;76.50;;;;;;4993390;28;20025;-55
2022/10/21 07:37:30;;;;;;;16.75;13.50;;;26.50;77.10;;;;;;4992593;28;20489;-57
2022/10/21 07:53:17;;;;;;;14.82;11.38;;;24.30;79.30;;;;;;5173028;27;20409;-53
2022/10/21 07:55:43;;;;;;;13.85;12.32;;;23.60;81.30;;;;;;5135356;27;20034;-55
2022/10/21 07:58:09;;;;;;;12.00;10.52;;;24.20;81.60;;;;;;5116691;27;20037;-55
2022/10/21 08:00:35;;;;;;;14.68;12.00;;;25.40;81.30;;;;;;5145836;27;20027;-55
2022/10/21 08:03:00;;;;;;;15.90;12.15;;;25.60;79.50;;;;;;5159997;27;20046;-54
2022/10/21 08:05:26;;;;;;;12.63;10.40;;;26.10;78.60;;;;;;5146392;27;20034;-54
2022/10/21 08:07:52;;;;;;;14.98;12.50;;;25.20;79.70;;;;;;5142140;27;20484;-55
2022/10/21 08:10:18;;;;;;;18.95;12.90;;;25.30;80.00;;;;;;5154000;27;20055;-53
2022/10/21 08:12:44;;;;;;;13.43;11.23;;;25.60;79.60;;;;;;5140506;27;20030;-53
2022/10/21 08:15:10;;;;;;;15.13;10.90;;;;;;;;;;5138537;27;20023;-53
2022/10/21 08:17:35;;;;;;;16.42;11.27;;;23.70;99.90;;;;;;5144319;27;20019;-53
2022/10/21 08:20:02;;;;;;;14.68;11.75;;;;;;;;;;5136968;27;20086;-54
2022/10/21 08:22:27;;;;;;;15.32;11.20;;;24.40;81.40;;;;;;5119747;27;20050;-55
2022/10/21 08:24:53;;;;;;;13.63;11.52;;;25.00;82.00;;;;;;5127465;27;20023;-55
2022/10/21 08:27:19;;;;;;;14.35;11.70;;;25.30;81.50;;;;;;5120019;27;20038;-54
2022/10/21 08:29:46;;;;;;;14.73;10.40;;;25.80;81.10;;;;;;5142904;27;20556;-56
2022/10/21 08:32:12;;;;;;;14.90;11.80;;;25.90;93.10;;;;;;5144618;27;20019;-53
2022/10/21 08:34:38;;;;;;;14.77;11.40;;;;;;;;;;5126259;27;20027;-53
2022/10/21 08:37:03;;;;;;;14.05;11.35;;;25.90;79.70;;;;;;5140297;27;20023;-54
2022/10/21 08:39:30;;;;;;;12.98;11.68;;;;;;;;;;5135733;27;20023;-55
2022/10/21 08:42:02;;;;;;;12.80;11.35;;;;;;;;;;5140427;27;20068;-55
2022/10/21 08:44:34;;;;;;;13.73;11.23;;;;;;;;;;5141993;27;20042;-54
2022/10/21 08:47:09;;;;;;;15.50;11.43;;;27.80;84.20;;;;;;5140391;27;20034;-55
2022/10/21 08:49:44;;;;;;;18.10;13.02;;;27.70;79.40;;;;;;5136147;27;20036;-55
2022/10/21 08:52:21;;;;;;;17.40;12.32;;;28.40;91.80;;;;;;5141180;27;20113;-58
2022/10/21 08:55:00;;;;;;;14.93;12.73;;;;;;;;;;5121535;27;20096;-51
2022/10/21 08:57:27;;;;;;;13.50;11.82;;;28.70;94.50;;;;;;5126891;27;20420;-54
2022/10/21 08:59:53;;;;;;;14.57;12.30;;;;;;;;;;5129423;27;20398;-55
2022/10/21 09:02:20;;;;;;;13.75;11.63;;;;;;;;;;5134689;27;20027;-56
2022/10/21 09:04:47;;;;;;;13.27;11.63;;;;;;;;;;5131215;27;20031;-55
2022/10/21 09:07:13;;;;;;;13.55;11.55;;;;;;;;;;5134679;27;20033;-56
2022/10/21 09:09:52;;;;;;;15.18;11.77;;;30.10;76.50;;;;;;5130760;27;20027;-55
2022/10/21 09:12:28;;;;;;;13.25;11.85;;;;;;;;;;5131147;27;20439;-55
2022/10/21 09:15:14;;;;;;;14.30;12.20;;;30.50;76.50;;;;;;5128658;27;20382;-56
2022/10/21 09:17:52;;;;;;;13.43;10.70;;;29.50;76.50;;;;;;5124443;27;20031;-53
2022/10/21 09:20:18;;;;;;;13.27;10.90;;;;;;;;;;5120619;27;20042;-52
2022/10/21 09:22:44;;;;;;;12.90;10.52;;;;;;;;;;5122632;27;20122;-51
2022/10/21 09:25:20;;;;;;;16.88;11.55;;;;;;;;;;5124474;27;20031;-51
2022/10/21 09:27:46;;;;;;;11.88;10.15;;;;;;;;;;5126061;27;20061;-51
2022/10/21 09:30:20;;;;;;;11.50;10.32;;;;;;;;;;5123462;27;20114;-51
2022/10/21 09:32:50;;;;;;;11.77;10.68;;;30.40;75.00;;;;;;5132850;27;20035;-52
2022/10/21 09:35:34;;;;;;;12.73;11.43;;;30.50;75.30;;;;;;5126298;27;20039;-51
2022/10/21 09:38:25;;;;;;;12.07;10.88;;;28.70;74.40;;;;;;5124068;27;20156;-51
2022/10/21 09:41:01;;;;;;;12.40;11.07;;;29.60;75.30;;;;;;5107829;27;20047;-51
2022/10/21 09:43:28;;;;;;;12.18;9.95;;;29.50;75.40;;;;;;5134133;27;20050;-52
2022/10/21 09:45:54;;;;;;;13.98;10.85;;;;;;;;;;5128464;27;20037;-57
2022/10/21 09:48:41;;;;;;;17.33;11.60;;;29.50;98.60;;;;;;5122992;27;20031;-53
2022/10/21 09:51:16;;;;;;;12.68;10.43;;;28.10;74.90;;;;;;5127286;27;20087;-56
2022/10/21 09:54:03;;;;;;;11.70;10.50;;;29.40;81.40;;;;;;5128662;27;20019;-58
2022/10/21 09:56:59;;;;;;;11.63;10.50;;;29.20;82.30;;;;;;5122045;27;20101;-53
2022/10/21 09:59:25;;;;;;;14.88;12.57;;;29.50;81.20;;;;;;5094315;28;20115;-52
2022/10/21 10:01:51;;;;;;;16.33;12.30;;;29.50;74.70;;;;;;5049094;28;20566;-52
2022/10/21 10:04:29;;;;;;;14.40;11.70;;;;;;;;;;5101318;28;20448;-53
2022/10/21 10:06:55;;;;;;;13.23;10.13;;;28.10;76.40;;;;;;5108179;28;20028;-53
2022/10/21 10:09:32;;;;;;;13.52;8.93;;;28.70;93.10;;;;;;5099017;28;20073;-53
2022/10/21 10:12:15;;;;;;;14.07;10.18;;;28.40;77.10;;;;;;5094143;27;20046;-53
2022/10/21 10:14:44;;;;;;;12.70;11.23;;;28.50;75.00;;;;;;5100988;28;20032;-53
2022/10/21 10:17:29;;;;;;;12.10;9.23;;;;;;;;;;5081283;28;20032;-52
2022/10/21 10:20:06;;;;;;;17.00;10.45;;;28.00;74.60;;;;;;5089857;28;20040;-54
2022/10/21 10:22:37;;;;;;;12.13;9.48;;;28.50;76.30;;;;;;5100641;28;20032;-52
2022/10/21 10:25:21;;;;;;;9.93;8.95;;;27.40;76.80;;;;;;5077339;28;20044;-52
2022/10/21 10:28:15;;;;;;;9.98;8.40;;;28.50;77.30;;;;;;5104494;28;20032;-52
2022/10/21 10:30:40;;;;;;;11.65;8.52;;;27.60;74.30;;;;;;5118673;27;20114;-52
2022/10/21 10:33:22;;;;;;;11.77;9.38;;;26.20;75.90;;;;;;5125663;27;20123;-53
2022/10/21 10:35:57;;;;;;;11.75;8.75;;;27.50;76.20;;;;;;5125010;27;20031;-51
2022/10/21 10:38:26;;;;;;;8.88;7.97;;;;;;;;;;5104638;28;20061;-51
2022/10/21 10:40:52;;;;;;;10.95;8.38;;;27.50;90.70;;;;;;5126497;27;20055;-53
2022/10/21 10:43:27;;;;;;;10.30;9.00;;;27.10;75.80;;;;;;5127425;27;20378;-51
2022/10/21 10:45:54;;;;;;;11.02;8.70;;;;;;;;;;5124427;27;20034;-52
2022/10/21 10:48:32;;;;;;;8.10;7.30;;;27.80;80.80;;;;;;5120974;27;20084;-52
2022/10/21 10:50:57;;;;;;;11.77;8.38;;;26.50;76.30;;;;;;5124692;27;20364;-52
2022/10/21 10:53:28;;;;;;;10.13;8.00;;;26.70;76.00;;;;;;5117211;27;20051;-52
2022/10/21 10:56:14;;;;;;;12.07;7.28;;;27.00;76.10;;;;;;5128047;27;20024;-52
2022/10/21 10:58:57;;;;;;;10.15;7.57;;;27.50;76.40;;;;;;5120500;27;20088;-51
2022/10/21 11:01:37;;;;;;;9.35;7.25;;;27.50;75.60;;;;;;5116707;27;20047;-51
2022/10/21 11:04:15;;;;;;;9.38;7.47;;;27.10;77.00;;;;;;5122182;27;20377;-51
2022/10/21 11:06:49;;;;;;;9.75;6.50;;;27.60;75.90;;;;;;5125856;27;20031;-51
2022/10/21 11:09:17;;;;;;;7.65;6.75;;;;;;;;;;5118391;27;20023;-52
2022/10/21 11:11:45;;;;;;;9.02;7.30;;;28.10;74.40;;;;;;5123583;27;20048;-53
2022/10/21 11:14:17;;;;;;;8.63;6.70;;;28.20;74.70;;;;;;5128150;27;20046;-51
2022/10/21 11:16:52;;;;;;;10.45;6.50;;;28.20;74.40;;;;;;5123897;27;20042;-53
2022/10/21 11:19:33;;;;;;;7.22;5.70;;;28.50;74.80;;;;;;5119179;27;20030;-51
2022/10/21 11:22:19;;;;;;;7.97;5.47;;;28.50;73.90;;;;;;5123994;27;20389;-51
2022/10/21 11:24:53;;;;;;;8.95;5.20;;;;;;;;;;5127868;27;20046;-52
2022/10/21 11:27:46;;;;;;;7.75;6.32;;;27.30;87.70;;;;;;5122031;27;20027;-53
2022/10/21 11:30:19;;;;;;;10.70;6.13;;;;;;;;;;5078268;28;20563;-52
2022/10/21 11:32:56;;;;;;;9.35;5.40;;;;;;;;;;5107571;28;20531;-53
2022/10/21 11:35:36;;;;;;;10.25;5.60;;;27.40;77.40;;;;;;5102830;28;20040;-51
2022/10/21 11:38:10;;;;;;;7.72;5.13;;;;;;;;;;5105492;28;20402;-53
2022/10/21 11:40:47;;;;;;;6.88;5.45;;;25.90;81.70;;;;;;5107312;28;20050;-51
2022/10/21 11:44:03;;;;;;;11.73;5.65;;;25.20;74.40;;;;;;5103962;28;20414;-53
2022/10/21 11:46:55;;;;;;;6.80;5.55;;;24.60;76.20;;;;;;5030239;28;20033;-52
2022/10/21 11:49:34;;;;;;;;;;;24.80;77.40;;;;;;5011317;28;20029;-52
2022/10/21 11:52:26;;;;;;;9.93;6.20;;;24.40;78.50;;;;;;5029589;28;20265;-51
2022/10/21 11:55:11;;;;;;;7.57;4.80;;;25.00;78.30;;;;;;5029501;28;20041;-52
2022/10/21 11:57:50;;;;;;;8.35;4.47;;;24.90;77.20;;;;;;5029611;28;20130;-53
2022/10/21 12:00:23;;;;;;;6.93;4.60;;;24.60;76.20;;;;;;5030196;28;20035;-52
2022/10/21 12:02:57;;;;;;;7.90;4.65;;;24.10;75.80;;;;;;5028824;28;20511;-52
2022/10/21 12:05:41;;;;;;;8.23;4.63;;;;;;;;;;5029375;28;20033;-53
2022/10/21 12:08:44;;;;;;;5.00;3.88;;;24.00;76.10;;;;;;5063242;28;20033;-52
2022/10/21 12:11:32;;;;;;;7.60;4.88;;;24.20;77.00;;;;;;5004906;28;20049;-52
2022/10/21 12:14:28;;;;;;;10.35;5.95;;;24.40;76.70;;;;;;5008522;28;20166;-52
2022/10/21 12:16:57;;;;;;;7.90;5.35;;;25.00;77.50;;;;;;5007224;28;20030;-51
2022/10/21 12:19:24;;;;;;;9.73;5.88;;;25.40;78.70;;;;;;5013950;28;20117;-52
2022/10/21 12:21:50;;;;;;;9.73;6.22;;;25.50;78.60;;;;;;5087754;28;20054;-53
2022/10/21 12:24:33;;;;;;;11.25;6.60;;;25.30;77.10;;;;;;5078381;28;20029;-53
2022/10/21 12:27:07;;;;;;;18.60;10.65;;;25.60;77.70;;;;;;5087374;28;20092;-52
2022/10/21 12:29:46;;;;;;;10.93;9.82;;;25.30;77.40;;;;;;5088336;28;20021;-53
2022/10/21 12:32:35;;;;;;;10.68;9.23;;;25.20;77.60;;;;;;5056293;28;20056;-51
2022/10/21 12:35:02;;;;;;;7.75;5.53;;;25.00;78.80;;;;;;5053823;28;20404;-51
2022/10/21 12:37:49;;;;;;;6.57;4.65;;;25.30;78.70;;;;;;5047861;28;20041;-52
2022/10/21 12:40:36;;;;;;;10.27;5.20;;;25.10;77.50;;;;;;5047636;28;20029;-52
2022/10/21 12:43:27;;;;;;;9.05;4.97;;;24.90;77.70;;;;;;5032710;28;20046;-50
2022/10/21 12:46:13;;;;;;;6.50;4.40;;;24.90;78.20;;;;;;5032301;28;20068;-51
2022/10/21 12:48:44;;;;;;;7.05;4.78;;;24.70;77.20;;;;;;5036219;28;20036;-51
2022/10/21 12:51:23;;;;;;;8.13;4.75;;;24.90;77.30;;;;;;5027898;28;20540;-52
2022/10/21 12:53:57;;;;;;;6.40;4.20;;;24.70;75.70;;;;;;5033648;28;20045;-50
2022/10/21 12:56:47;;;;;;;8.73;4.63;;;24.70;75.70;;;;;;5030723;28;20377;-51
2022/10/21 12:59:42;;;;;;;5.53;4.30;;;24.80;76.90;;;;;;5031388;28;20025;-51
2022/10/21 13:02:21;;;;;;;8.55;5.75;;;24.80;78.30;;;;;;5032739;28;20045;-51
2022/10/21 13:04:49;;;;;;;7.93;4.88;;;24.60;78.70;;;;;;5033214;28;20169;-51
2022/10/21 13:07:15;;;;;;;8.80;5.55;;;24.60;77.90;;;;;;5031263;28;20041;-52
2022/10/21 13:09:42;;;;;;;9.68;5.75;;;24.20;77.60;;;;;;5015912;28;20040;-52
2022/10/21 13:12:08;;;;;;;9.23;4.63;;;;;;;;;;5068150;28;20062;-51
2022/10/21 13:14:47;;;;;;;8.35;5.10;;;;;;;;;;5112850;28;20558;-51
2022/10/21 13:17:19;;;;;;;8.60;5.72;;;23.50;94.10;;;;;;5100286;28;20040;-53
2022/10/21 13:19:46;;;;;;;;;;;23.10;79.60;;;;;;5112117;27;20123;-52
2022/10/21 13:22:18;;;;;;;9.57;5.03;;;22.90;80.30;;;;;;5124635;27;19912;-52
2022/10/21 13:24:45;;;;;;;31.05;22.05;;;22.70;80.20;;;;;;5125217;27;20084;-52
2022/10/21 13:27:26;;;;;;;15.70;10.25;;;22.60;80.50;;;;;;5119126;27;20038;-52
2022/10/21 13:29:52;;;;;;;7.85;5.93;;;22.60;81.40;;;;;;5126539;27;20023;-52
2022/10/21 13:32:45;;;;;;;9.65;5.07;;;22.50;81.80;;;;;;5125394;27;20035;-51
2022/10/21 13:35:19;;;;;;;9.07;5.10;;;22.50;82.20;;;;;;5126051;27;20382;-51
2022/10/21 13:38:02;;;;;;;9.65;5.63;;;22.30;82.20;;;;;;5130575;27;20933;-51
2022/10/21 13:40:43;;;;;;;10.35;6.90;;;22.20;82.30;;;;;;5127817;27;20042;-51
2022/10/21 13:43:16;;;;;;;9.52;4.95;;;22.30;82.70;;;;;;5124289;27;20061;-52
2022/10/21 13:45:47;;;;;;;11.13;5.55;;;22.20;83.40;;;;;;5122867;27;20359;-51
2022/10/21 13:48:17;;;;;;;7.63;5.25;;;22.20;84.10;;;;;;5126066;27;20091;-51
2022/10/21 13:50:49;;;;;;;8.55;4.60;;;22.10;84.50;;;;;;5129765;27;20038;-52
2022/10/21 13:53:23;;;;;;;9.00;3.90;;;22.00;85.10;;;;;;5119838;27;20051;-53
2022/10/21 13:55:55;;;;;;;6.97;4.43;;;21.70;85.30;;;;;;5127110;27;20027;-52
2022/10/21 13:58:23;;;;;;;7.93;4.18;;;21.70;85.50;;;;;;5123887;27;20032;-52
2022/10/21 14:00:48;;;;;;;6.97;4.15;;;21.50;85.90;;;;;;5126483;27;20023;-51
2022/10/21 14:03:19;;;;;;;8.25;4.65;;;21.50;86.00;;;;;;5136973;27;20077;-52
2022/10/21 14:05:54;;;;;;;9.80;4.80;;;21.60;85.50;;;;;;5127202;27;20074;-51
2022/10/21 14:08:28;;;;;;;6.95;4.90;;;21.50;86.00;;;;;;5125353;27;20028;-53
2022/10/21 14:10:57;;;;;;;7.35;4.57;;;21.60;86.00;;;;;;5125389;27;20065;-52
2022/10/21 14:13:27;;;;;;;7.97;4.78;;;21.50;86.10;;;;;;5117062;27;20050;-52
2022/10/21 14:15:54;;;;;;;8.90;4.63;;;21.50;86.60;;;;;;5123568;27;20032;-52
2022/10/21 14:18:33;;;;;;;14.57;4.75;;;21.50;86.90;;;;;;5121408;27;20031;-52
2022/10/21 14:21:00;;;;;;;11.95;4.95;;;21.50;86.90;;;;;;5120968;27;20046;-52
2022/10/21 14:23:28;;;;;;;15.60;8.35;;;21.40;86.90;;;;;;5121322;27;20036;-51
2022/10/21 14:26:04;;;;;;;19.13;15.88;;;21.40;87.40;;;;;;5109231;27;20122;-52
2022/10/21 14:28:31;;;;;;;29.35;23.95;;;21.30;88.50;;;;;;5120116;27;20053;-52
2022/10/21 14:30:57;;;;;;;36.22;26.58;;;21.30;88.10;;;;;;5122771;27;20016;-51
2022/10/21 14:33:27;;;;;;;34.03;28.65;;;21.10;87.60;;;;;;5148232;27;20395;-53
2022/10/21 14:36:18;;;;;;;16.80;12.70;;;21.00;88.20;;;;;;5129525;27;20394;-52
2022/10/21 14:38:59;;;;;;;20.42;11.95;;;20.80;88.20;;;;;;5127738;27;20030;-51
2022/10/21 14:41:37;;;;;;;20.58;12.00;;;20.90;88.50;;;;;;5127458;27;20048;-51
2022/10/21 14:44:11;;;;;;;20.80;11.90;;;20.70;89.00;;;;;;5122358;27;20026;-51
2022/10/21 14:46:45;;;;;;;20.42;11.95;;;20.80;89.30;;;;;;5125295;27;20172;-52
2022/10/21 14:49:31;;;;;;;22.70;12.90;;;20.70;89.90;;;;;;5121778;27;20023;-50
2022/10/21 14:52:06;;;;;;;17.48;11.07;;;20.60;90.30;;;;;;5126990;27;20081;-51
2022/10/21 14:54:33;;;;;;;22.02;11.05;;;;;;;;;;5126374;27;20016;-52
2022/10/21 14:57:00;;;;;;;21.75;10.70;;;20.40;99.90;;;;;;5127685;27;20050;-52
2022/10/21 14:59:51;;;;;;;21.73;11.40;;;20.20;91.20;;;;;;5123136;27;20386;-53
2022/10/21 15:02:25;;;;;;;23.33;12.35;;;20.20;91.30;;;;;;5090524;27;20039;-52
2022/10/21 15:04:59;;;;;;;19.65;12.20;;;20.10;91.40;;;;;;5124038;27;20027;-51
2022/10/21 15:07:28;;;;;;;21.27;13.73;;;20.00;91.70;;;;;;5126601;27;20424;-51
2022/10/21 15:10:03;;;;;;;28.40;15.32;;;;;;;;;;5122520;27;20027;-51
2022/10/21 15:12:43;;;;;;;25.50;14.93;;;20.00;92.00;;;;;;5125241;27;20034;-51
2022/10/21 15:15:42;;;;;;;32.00;15.98;;;19.90;91.70;;;;;;5122123;27;20020;-51
2022/10/21 15:18:31;;;;;;;25.63;14.13;;;19.70;92.00;;;;;;5109920;27;20123;-50
2022/10/21 15:21:09;;;;;;;26.27;13.77;;;19.60;92.20;;;;;;5127290;27;20534;-50
2022/10/21 15:23:43;;;;;;;23.33;13.10;;;19.60;92.20;;;;;;5121455;27;20058;-49
2022/10/21 15:26:35;;;;;;;25.40;13.40;;;19.70;92.10;;;;;;5122644;27;20039;-49
2022/10/21 15:29:20;;;;;;;26.17;14.57;;;19.60;92.30;;;;;;5119808;27;20040;-50
2022/10/21 15:31:45;;;;;;;32.63;17.05;;;19.40;92.50;;;;;;5119960;27;20036;-49